sensor_id;sensor_type;location;lat;lon;timestamp;pressure;altitude;pressure_sealevel;temperature;humidity
79703;BME280;69172;52.352;5.006;2023-07-20T00:01:45;101521.94;;;15.44;87.96
79703;BME280;69172;52.352;5.006;2023-07-20T00:04:11;101522.50;;;15.37;88.24
79703;BME280;69172;52.352;5.006;2023-07-20T00:06:39;101522.69;;;15.41;88.59
79703;BME280;69172;52.352;5.006;2023-07-20T00:09:08;101529.38;;;15.36;89.50
79703;BME280;69172;52.352;5.006;2023-07-20T00:11:36;101523.91;;;15.30;89.43
79703;BME280;69172;52.352;5.006;2023-07-20T00:14:06;101534.00;;;15.24;89.65
79703;BME280;69172;52.352;5.006;2023-07-20T00:16:33;101523.75;;;15.27;89.97
79703;BME280;69172;52.352;5.006;2023-07-20T00:18:58;101520.91;;;15.21;90.50
79703;BME280;69172;52.352;5.006;2023-07-20T00:21:24;101532.00;;;15.19;89.96
79703;BME280;69172;52.352;5.006;2023-07-20T00:23:49;101523.34;;;15.18;90.56
79703;BME280;69172;52.352;5.006;2023-07-20T00:26:15;101525.03;;;15.18;90.49
79703;BME280;69172;52.352;5.006;2023-07-20T00:28:40;101520.50;;;15.14;90.79
79703;BME280;69172;52.352;5.006;2023-07-20T00:31:05;101515.31;;;15.14;91.11
79703;BME280;69172;52.352;5.006;2023-07-20T00:33:31;101517.84;;;15.12;90.80
79703;BME280;69172;52.352;5.006;2023-07-20T00:35:56;101519.19;;;15.04;90.87
79703;BME280;69172;52.352;5.006;2023-07-20T00:38:22;101516.66;;;15.06;91.19
79703;BME280;69172;52.352;5.006;2023-07-20T00:40:47;101515.69;;;15.04;91.01
79703;BME280;69172;52.352;5.006;2023-07-20T00:43:14;101519.25;;;15.06;90.50
79703;BME280;69172;52.352;5.006;2023-07-20T00:45:40;101517.69;;;15.09;91.06
79703;BME280;69172;52.352;5.006;2023-07-20T00:48:06;101517.56;;;15.06;90.92
79703;BME280;69172;52.352;5.006;2023-07-20T00:50:33;101518.53;;;15.08;89.71
79703;BME280;69172;52.352;5.006;2023-07-20T00:52:59;101516.91;;;15.10;90.42
79703;BME280;69172;52.352;5.006;2023-07-20T00:55:25;101512.63;;;15.11;90.65
79703;BME280;69172;52.352;5.006;2023-07-20T00:57:52;101510.06;;;15.12;90.49
79703;BME280;69172;52.352;5.006;2023-07-20T01:00:18;101514.31;;;15.10;88.93
79703;BME280;69172;52.352;5.006;2023-07-20T01:02:44;101505.59;;;15.08;88.72
79703;BME280;69172;52.352;5.006;2023-07-20T01:05:10;101515.19;;;15.11;89.29
79703;BME280;69172;52.352;5.006;2023-07-20T01:07:59;101516.81;;;15.09;89.41
79703;BME280;69172;52.352;5.006;2023-07-20T01:11:28;101521.13;;;15.08;89.54
79703;BME280;69172;52.352;5.006;2023-07-20T01:13:36;101520.97;;;15.05;89.65
79703;BME280;69172;52.352;5.006;2023-07-20T01:16:02;101520.88;;;15.04;89.80
79703;BME280;69172;52.352;5.006;2023-07-20T01:18:27;101514.81;;;15.03;90.20
79703;BME280;69172;52.352;5.006;2023-07-20T01:20:59;101515.41;;;14.98;89.80
79703;BME280;69172;52.352;5.006;2023-07-20T01:31:54;101520.31;;;14.92;90.75
79703;BME280;69172;52.352;5.006;2023-07-20T01:34:23;101528.94;;;14.92;91.02
79703;BME280;69172;52.352;5.006;2023-07-20T01:36:50;101510.59;;;14.87;91.13
79703;BME280;69172;52.352;5.006;2023-07-20T01:39:18;101516.50;;;14.85;90.97
79703;BME280;69172;52.352;5.006;2023-07-20T01:41:44;101517.25;;;14.82;91.16
79703;BME280;69172;52.352;5.006;2023-07-20T01:44:10;101512.00;;;14.81;90.79
79703;BME280;69172;52.352;5.006;2023-07-20T01:46:37;101519.63;;;14.78;90.76
79703;BME280;69172;52.352;5.006;2023-07-20T01:49:03;101517.69;;;14.74;91.33
79703;BME280;69172;52.352;5.006;2023-07-20T01:51:28;101504.75;;;14.74;91.11
79703;BME280;69172;52.352;5.006;2023-07-20T01:53:53;101509.84;;;14.72;90.60
79703;BME280;69172;52.352;5.006;2023-07-20T01:56:20;101516.72;;;14.72;90.41
79703;BME280;69172;52.352;5.006;2023-07-20T01:58:45;101515.84;;;14.71;90.52
79703;BME280;69172;52.352;5.006;2023-07-20T02:01:10;101514.03;;;14.70;89.78
79703;BME280;69172;52.352;5.006;2023-07-20T02:03:36;101503.63;;;14.69;89.19
79703;BME280;69172;52.352;5.006;2023-07-20T02:06:01;101507.16;;;14.71;89.35
79703;BME280;69172;52.352;5.006;2023-07-20T02:08:27;101515.94;;;14.73;89.21
79703;BME280;69172;52.352;5.006;2023-07-20T02:10:52;101517.78;;;14.75;88.92
79703;BME280;69172;52.352;5.006;2023-07-20T02:13:18;101513.34;;;14.73;88.18
79703;BME280;69172;52.352;5.006;2023-07-20T02:15:43;101511.84;;;14.78;88.11
79703;BME280;69172;52.352;5.006;2023-07-20T02:18:09;101515.25;;;14.77;88.00
79703;BME280;69172;52.352;5.006;2023-07-20T02:20:35;101519.63;;;14.78;88.48
79703;BME280;69172;52.352;5.006;2023-07-20T02:23:00;101514.28;;;14.75;87.29
79703;BME280;69172;52.352;5.006;2023-07-20T02:25:26;101516.22;;;14.79;87.93
79703;BME280;69172;52.352;5.006;2023-07-20T02:27:52;101518.88;;;14.80;87.06
79703;BME280;69172;52.352;5.006;2023-07-20T02:30:17;101519.53;;;14.76;86.74
79703;BME280;69172;52.352;5.006;2023-07-20T02:32:43;101516.22;;;14.79;86.78
79703;BME280;69172;52.352;5.006;2023-07-20T02:35:15;101521.38;;;14.79;86.54
79703;BME280;69172;52.352;5.006;2023-07-20T02:37:40;101512.59;;;14.75;85.75
79703;BME280;69172;52.352;5.006;2023-07-20T02:40:06;101516.94;;;14.76;86.04
79703;BME280;69172;52.352;5.006;2023-07-20T02:42:33;101517.91;;;14.78;87.20
79703;BME280;69172;52.352;5.006;2023-07-20T02:44:58;101525.59;;;14.77;87.06
79703;BME280;69172;52.352;5.006;2023-07-20T02:47:23;101528.03;;;14.74;87.25
79703;BME280;69172;52.352;5.006;2023-07-20T02:49:49;101518.56;;;14.74;87.63
79703;BME280;69172;52.352;5.006;2023-07-20T02:52:14;101521.81;;;14.70;86.82
79703;BME280;69172;52.352;5.006;2023-07-20T02:54:40;101518.28;;;14.68;87.58
79703;BME280;69172;52.352;5.006;2023-07-20T02:57:05;101525.13;;;14.68;87.01
79703;BME280;69172;52.352;5.006;2023-07-20T02:59:31;101531.00;;;14.64;86.96
79703;BME280;69172;52.352;5.006;2023-07-20T03:01:57;101534.97;;;14.57;86.29
79703;BME280;69172;52.352;5.006;2023-07-20T03:04:26;101542.56;;;14.54;86.97
79703;BME280;69172;52.352;5.006;2023-07-20T03:06:51;101546.88;;;14.54;86.51
79703;BME280;69172;52.352;5.006;2023-07-20T03:09:16;101549.47;;;14.54;86.40
79703;BME280;69172;52.352;5.006;2023-07-20T03:11:42;101539.03;;;14.52;86.49
79703;BME280;69172;52.352;5.006;2023-07-20T03:14:07;101539.75;;;14.50;85.78
79703;BME280;69172;52.352;5.006;2023-07-20T03:16:33;101547.53;;;14.50;85.31
79703;BME280;69172;52.352;5.006;2023-07-20T03:18:59;101537.75;;;14.44;84.48
79703;BME280;69172;52.352;5.006;2023-07-20T03:21:25;101540.44;;;14.46;84.16
79703;BME280;69172;52.352;5.006;2023-07-20T03:23:51;101554.50;;;14.51;84.95
79703;BME280;69172;52.352;5.006;2023-07-20T03:26:16;101554.34;;;14.48;84.36
79703;BME280;69172;52.352;5.006;2023-07-20T03:28:42;101557.72;;;14.47;84.55
79703;BME280;69172;52.352;5.006;2023-07-20T03:31:07;101557.66;;;14.45;84.94
79703;BME280;69172;52.352;5.006;2023-07-20T03:33:34;101557.56;;;14.44;84.85
79703;BME280;69172;52.352;5.006;2023-07-20T03:36:00;101555.88;;;14.44;84.92
79703;BME280;69172;52.352;5.006;2023-07-20T03:38:26;101557.56;;;14.44;84.30
79703;BME280;69172;52.352;5.006;2023-07-20T03:40:57;101565.25;;;14.42;85.23
79703;BME280;69172;52.352;5.006;2023-07-20T03:43:24;101562.50;;;14.39;85.46
79703;BME280;69172;52.352;5.006;2023-07-20T03:45:51;101569.22;;;14.36;84.94
79703;BME280;69172;52.352;5.006;2023-07-20T03:48:20;101562.13;;;14.32;84.30
79703;BME280;69172;52.352;5.006;2023-07-20T03:50:48;101562.28;;;14.35;84.79
79703;BME280;69172;52.352;5.006;2023-07-20T03:53:14;101552.53;;;14.30;84.96
79703;BME280;69172;52.352;5.006;2023-07-20T03:55:50;101551.63;;;14.30;84.40
79703;BME280;69172;52.352;5.006;2023-07-20T03:58:16;101564.69;;;14.32;83.08
79703;BME280;69172;52.352;5.006;2023-07-20T04:00:49;101557.84;;;14.32;82.93
79703;BME280;69172;52.352;5.006;2023-07-20T04:03:16;101558.78;;;14.34;83.05
79703;BME280;69172;52.352;5.006;2023-07-20T04:05:42;101557.00;;;14.33;82.34
79703;BME280;69172;52.352;5.006;2023-07-20T04:08:07;101555.25;;;14.32;82.54
79703;BME280;69172;52.352;5.006;2023-07-20T04:10:33;101557.97;;;14.35;82.70
79703;BME280;69172;52.352;5.006;2023-07-20T04:12:58;101559.69;;;14.35;81.44
79703;BME280;69172;52.352;5.006;2023-07-20T04:15:24;101559.53;;;14.32;81.14
79703;BME280;69172;52.352;5.006;2023-07-20T04:17:49;101566.34;;;14.31;81.01
79703;BME280;69172;52.352;5.006;2023-07-20T04:20:14;101568.31;;;14.35;81.01
79703;BME280;69172;52.352;5.006;2023-07-20T04:22:39;101569.75;;;14.30;80.59
79703;BME280;69172;52.352;5.006;2023-07-20T04:25:05;101576.00;;;14.34;80.27
79703;BME280;69172;52.352;5.006;2023-07-20T04:27:31;101569.94;;;14.33;80.16
79703;BME280;69172;52.352;5.006;2023-07-20T04:29:58;101567.44;;;14.35;79.64
79703;BME280;69172;52.352;5.006;2023-07-20T04:32:25;101572.06;;;14.40;79.59
79703;BME280;69172;52.352;5.006;2023-07-20T04:34:50;101579.88;;;14.42;78.83
79703;BME280;69172;52.352;5.006;2023-07-20T04:37:16;101579.16;;;14.44;78.58
79703;BME280;69172;52.352;5.006;2023-07-20T04:39:41;101568.16;;;14.48;77.78
79703;BME280;69172;52.352;5.006;2023-07-20T04:42:07;101577.78;;;14.51;78.41
79703;BME280;69172;52.352;5.006;2023-07-20T04:44:32;101584.09;;;14.56;78.37
79703;BME280;69172;52.352;5.006;2023-07-20T04:46:58;101577.44;;;14.61;78.62
79703;BME280;69172;52.352;5.006;2023-07-20T04:49:23;101581.94;;;14.65;77.88
79703;BME280;69172;52.352;5.006;2023-07-20T04:51:48;101588.91;;;14.66;78.05
79703;BME280;69172;52.352;5.006;2023-07-20T04:54:13;101581.25;;;14.67;77.86
79703;BME280;69172;52.352;5.006;2023-07-20T04:56:39;101593.44;;;14.70;78.26
79703;BME280;69172;52.352;5.006;2023-07-20T04:59:05;101596.31;;;14.76;76.21
79703;BME280;69172;52.352;5.006;2023-07-20T05:01:30;101598.16;;;14.78;77.45
79703;BME280;69172;52.352;5.006;2023-07-20T05:03:56;101589.94;;;14.85;76.06
79703;BME280;69172;52.352;5.006;2023-07-20T05:06:22;101597.13;;;14.91;75.89
79703;BME280;69172;52.352;5.006;2023-07-20T05:08:48;101597.34;;;14.96;76.87
79703;BME280;69172;52.352;5.006;2023-07-20T05:11:13;101595.78;;;14.99;76.28
79703;BME280;69172;52.352;5.006;2023-07-20T05:13:38;101589.78;;;15.00;76.69
79703;BME280;69172;52.352;5.006;2023-07-20T05:16:04;101587.13;;;14.99;76.58
79703;BME280;69172;52.352;5.006;2023-07-20T05:18:30;101587.19;;;15.00;77.12
79703;BME280;69172;52.352;5.006;2023-07-20T05:20:55;101574.97;;;14.98;76.79
79703;BME280;69172;52.352;5.006;2023-07-20T05:23:21;101587.44;;;15.05;77.17
79703;BME280;69172;52.352;5.006;2023-07-20T05:25:47;101593.50;;;15.05;76.64
79703;BME280;69172;52.352;5.006;2023-07-20T05:28:13;101595.38;;;15.08;75.30
79703;BME280;69172;52.352;5.006;2023-07-20T05:30:39;101591.88;;;15.07;76.05
79703;BME280;69172;52.352;5.006;2023-07-20T05:33:05;101587.66;;;15.09;75.31
79703;BME280;69172;52.352;5.006;2023-07-20T05:35:30;101593.00;;;15.12;74.98
79703;BME280;69172;52.352;5.006;2023-07-20T05:37:56;101594.09;;;15.17;75.92
79703;BME280;69172;52.352;5.006;2023-07-20T05:40:21;101594.19;;;15.19;75.55
79703;BME280;69172;52.352;5.006;2023-07-20T05:42:48;101596.09;;;15.23;75.31
79703;BME280;69172;52.352;5.006;2023-07-20T05:45:14;101594.41;;;15.23;75.16
79703;BME280;69172;52.352;5.006;2023-07-20T05:47:41;101598.03;;;15.27;74.75
79703;BME280;69172;52.352;5.006;2023-07-20T05:50:07;101604.25;;;15.30;74.85
79703;BME280;69172;52.352;5.006;2023-07-20T05:52:33;101603.44;;;15.31;72.86
79703;BME280;69172;52.352;5.006;2023-07-20T05:54:58;101607.00;;;15.33;72.67
79703;BME280;69172;52.352;5.006;2023-07-20T05:57:23;101596.03;;;15.39;72.99
79703;BME280;69172;52.352;5.006;2023-07-20T05:59:49;101603.81;;;15.39;71.52
79703;BME280;69172;52.352;5.006;2023-07-20T06:02:14;101594.53;;;15.44;71.37
79703;BME280;69172;52.352;5.006;2023-07-20T06:04:40;101603.41;;;15.47;70.35
79703;BME280;69172;52.352;5.006;2023-07-20T06:07:05;101601.16;;;15.55;71.63
79703;BME280;69172;52.352;5.006;2023-07-20T06:09:33;101597.63;;;15.53;68.24
79703;BME280;69172;52.352;5.006;2023-07-20T06:11:58;101603.00;;;15.58;69.75
79703;BME280;69172;52.352;5.006;2023-07-20T06:14:24;101608.19;;;15.58;66.77
79703;BME280;69172;52.352;5.006;2023-07-20T06:16:49;101597.31;;;15.65;68.76
79703;BME280;69172;52.352;5.006;2023-07-20T06:19:15;101589.53;;;15.65;69.21
79703;BME280;69172;52.352;5.006;2023-07-20T06:21:41;101609.53;;;15.67;67.86
79703;BME280;69172;52.352;5.006;2023-07-20T06:24:06;101608.50;;;15.64;67.63
79703;BME280;69172;52.352;5.006;2023-07-20T06:26:32;101601.47;;;15.61;67.95
79703;BME280;69172;52.352;5.006;2023-07-20T06:29:03;101607.69;;;15.65;68.16
79703;BME280;69172;52.352;5.006;2023-07-20T06:31:28;101609.53;;;15.67;67.83
79703;BME280;69172;52.352;5.006;2023-07-20T06:33:54;101606.19;;;15.70;67.87
79703;BME280;69172;52.352;5.006;2023-07-20T06:36:19;101610.69;;;15.74;67.73
79703;BME280;69172;52.352;5.006;2023-07-20T06:38:45;101610.84;;;15.77;68.70
79703;BME280;69172;52.352;5.006;2023-07-20T06:41:10;101617.00;;;15.79;67.76
79703;BME280;69172;52.352;5.006;2023-07-20T06:43:36;101612.78;;;15.81;69.29
79703;BME280;69172;52.352;5.006;2023-07-20T06:46:01;101619.72;;;15.82;68.74
79703;BME280;69172;52.352;5.006;2023-07-20T06:48:26;101604.44;;;15.88;68.69
79703;BME280;69172;52.352;5.006;2023-07-20T06:50:53;101607.03;;;15.88;68.59
79703;BME280;69172;52.352;5.006;2023-07-20T06:53:19;101614.03;;;15.89;68.51
79703;BME280;69172;52.352;5.006;2023-07-20T06:55:44;101607.94;;;15.88;68.23
79703;BME280;69172;52.352;5.006;2023-07-20T06:58:11;101610.69;;;15.91;68.48
79703;BME280;69172;52.352;5.006;2023-07-20T07:00:36;101620.25;;;15.92;68.71
79703;BME280;69172;52.352;5.006;2023-07-20T07:03:02;101609.97;;;15.95;68.54
79703;BME280;69172;52.352;5.006;2023-07-20T07:05:27;101610.06;;;15.97;67.87
79703;BME280;69172;52.352;5.006;2023-07-20T07:07:53;101616.22;;;15.99;67.38
79703;BME280;69172;52.352;5.006;2023-07-20T07:10:18;101615.56;;;16.03;67.54
79703;BME280;69172;52.352;5.006;2023-07-20T07:12:44;101621.88;;;16.09;67.29
79703;BME280;69172;52.352;5.006;2023-07-20T07:15:09;101617.59;;;16.10;67.10
79703;BME280;69172;52.352;5.006;2023-07-20T07:17:36;101623.69;;;16.11;66.30
79703;BME280;69172;52.352;5.006;2023-07-20T07:20:03;101614.44;;;16.17;66.95
79703;BME280;69172;52.352;5.006;2023-07-20T07:22:29;101621.56;;;16.21;66.42
79703;BME280;69172;52.352;5.006;2023-07-20T07:24:54;101615.69;;;16.25;66.87
79703;BME280;69172;52.352;5.006;2023-07-20T07:27:20;101617.75;;;16.32;65.95
79703;BME280;69172;52.352;5.006;2023-07-20T07:29:45;101623.84;;;16.33;65.56
79703;BME280;69172;52.352;5.006;2023-07-20T07:32:11;101611.59;;;16.30;65.21
79703;BME280;69172;52.352;5.006;2023-07-20T07:34:38;101610.00;;;16.34;65.87
79703;BME280;69172;52.352;5.006;2023-07-20T07:37:04;101616.09;;;16.34;65.80
79703;BME280;69172;52.352;5.006;2023-07-20T07:39:30;101623.28;;;16.40;65.62
79703;BME280;69172;52.352;5.006;2023-07-20T07:41:56;101619.03;;;16.42;65.59
79703;BME280;69172;52.352;5.006;2023-07-20T07:44:22;101614.31;;;16.52;65.82
79703;BME280;69172;52.352;5.006;2023-07-20T07:46:47;101616.25;;;16.56;64.12
79703;BME280;69172;52.352;5.006;2023-07-20T07:49:14;101626.59;;;16.55;64.08
79703;BME280;69172;52.352;5.006;2023-07-20T07:51:39;101631.16;;;16.60;64.30
79703;BME280;69172;52.352;5.006;2023-07-20T07:54:05;101626.94;;;16.62;63.92
79703;BME280;69172;52.352;5.006;2023-07-20T07:56:30;101629.81;;;16.69;62.81
79703;BME280;69172;52.352;5.006;2023-07-20T07:58:55;101637.66;;;16.70;62.54
79703;BME280;69172;52.352;5.006;2023-07-20T08:01:21;101632.16;;;16.83;61.86
79703;BME280;69172;52.352;5.006;2023-07-20T08:03:47;101637.06;;;16.77;61.45
79703;BME280;69172;52.352;5.006;2023-07-20T08:06:16;101636.81;;;16.90;61.24
79703;BME280;69172;52.352;5.006;2023-07-20T08:08:41;101630.91;;;16.94;61.03
79703;BME280;69172;52.352;5.006;2023-07-20T08:11:09;101632.75;;;16.97;60.83
79703;BME280;69172;52.352;5.006;2023-07-20T08:13:36;101638.22;;;17.03;61.91
79703;BME280;69172;52.352;5.006;2023-07-20T08:16:02;101634.88;;;17.07;61.44
79703;BME280;69172;52.352;5.006;2023-07-20T08:18:29;101636.81;;;17.11;61.04
79703;BME280;69172;52.352;5.006;2023-07-20T08:20:54;101637.63;;;17.10;60.84
79703;BME280;69172;52.352;5.006;2023-07-20T08:23:20;101631.63;;;17.11;60.82
79703;BME280;69172;52.352;5.006;2023-07-20T08:25:45;101635.75;;;17.06;61.94
79703;BME280;69172;52.352;5.006;2023-07-20T08:28:13;101631.88;;;17.17;62.55
79703;BME280;69172;52.352;5.006;2023-07-20T08:30:40;101632.09;;;17.23;61.88
79703;BME280;69172;52.352;5.006;2023-07-20T08:33:06;101631.38;;;17.25;61.53
79703;BME280;69172;52.352;5.006;2023-07-20T08:35:32;101630.75;;;17.31;61.38
79703;BME280;69172;52.352;5.006;2023-07-20T08:37:57;101631.03;;;17.39;61.78
79703;BME280;69172;52.352;5.006;2023-07-20T08:40:22;101632.16;;;17.45;61.54
79703;BME280;69172;52.352;5.006;2023-07-20T08:42:48;101636.00;;;17.53;59.53
79703;BME280;69172;52.352;5.006;2023-07-20T08:45:16;101630.09;;;17.57;59.30
79703;BME280;69172;52.352;5.006;2023-07-20T08:47:43;101628.69;;;17.65;59.34
79703;BME280;69172;52.352;5.006;2023-07-20T08:50:11;101620.06;;;17.66;57.32
79703;BME280;69172;52.352;5.006;2023-07-20T08:52:37;101637.50;;;17.69;56.95
79703;BME280;69172;52.352;5.006;2023-07-20T08:55:03;101628.97;;;17.73;56.65
79703;BME280;69172;52.352;5.006;2023-07-20T08:57:32;101635.91;;;17.72;57.78
79703;BME280;69172;52.352;5.006;2023-07-20T09:00:01;101630.94;;;17.78;55.55
79703;BME280;69172;52.352;5.006;2023-07-20T09:02:30;101632.81;;;18.05;56.99
79703;BME280;69172;52.352;5.006;2023-07-20T09:04:58;101629.97;;;18.21;57.34
79703;BME280;69172;52.352;5.006;2023-07-20T09:07:23;101622.38;;;18.49;57.02
79703;BME280;69172;52.352;5.006;2023-07-20T09:09:50;101623.09;;;18.69;55.38
79703;BME280;69172;52.352;5.006;2023-07-20T09:12:15;101626.28;;;18.85;55.58
79703;BME280;69172;52.352;5.006;2023-07-20T09:14:44;101623.03;;;18.92;54.41
79703;BME280;69172;52.352;5.006;2023-07-20T09:17:13;101618.50;;;19.12;54.45
79703;BME280;69172;52.352;5.006;2023-07-20T09:19:39;101620.75;;;19.27;52.57
79703;BME280;69172;52.352;5.006;2023-07-20T09:22:10;101615.56;;;19.28;52.33
79703;BME280;69172;52.352;5.006;2023-07-20T09:24:36;101617.16;;;19.23;50.69
79703;BME280;69172;52.352;5.006;2023-07-20T09:27:02;101617.75;;;19.41;50.55
79703;BME280;69172;52.352;5.006;2023-07-20T09:29:30;101624.16;;;19.78;50.67
79703;BME280;69172;52.352;5.006;2023-07-20T09:32:03;101621.59;;;20.07;52.07
79703;BME280;69172;52.352;5.006;2023-07-20T09:34:32;101620.28;;;19.93;51.47
79703;BME280;69172;52.352;5.006;2023-07-20T09:36:59;101612.19;;;20.14;51.78
79703;BME280;69172;52.352;5.006;2023-07-20T09:39:24;101614.66;;;20.09;52.40
79703;BME280;69172;52.352;5.006;2023-07-20T09:41:51;101613.06;;;20.43;50.76
79703;BME280;69172;52.352;5.006;2023-07-20T09:44:17;101615.06;;;20.51;49.86
79703;BME280;69172;52.352;5.006;2023-07-20T09:46:47;101616.97;;;20.90;49.11
79703;BME280;69172;52.352;5.006;2023-07-20T09:49:14;101613.13;;;21.08;49.61
79703;BME280;69172;52.352;5.006;2023-07-20T09:51:40;101616.53;;;21.42;47.65
79703;BME280;69172;52.352;5.006;2023-07-20T09:54:07;101613.72;;;21.68;47.81
79703;BME280;69172;52.352;5.006;2023-07-20T09:56:34;101610.38;;;21.75;46.63
79703;BME280;69172;52.352;5.006;2023-07-20T09:59:00;101606.41;;;21.55;46.50
79703;BME280;69172;52.352;5.006;2023-07-20T10:01:26;101613.72;;;21.68;46.07
79703;BME280;69172;52.352;5.006;2023-07-20T10:03:58;101606.69;;;22.05;45.64
79703;BME280;69172;52.352;5.006;2023-07-20T10:06:24;101602.25;;;22.01;45.71
79703;BME280;69172;52.352;5.006;2023-07-20T10:08:53;101602.31;;;22.04;45.49
79703;BME280;69172;52.352;5.006;2023-07-20T10:11:19;101601.56;;;22.11;45.62
79703;BME280;69172;52.352;5.006;2023-07-20T10:13:51;101599.16;;;22.20;44.40
79703;BME280;69172;52.352;5.006;2023-07-20T10:16:24;101595.06;;;21.92;46.31
79703;BME280;69172;52.352;5.006;2023-07-20T10:21:22;101601.25;;;21.58;45.65
79703;BME280;69172;52.352;5.006;2023-07-20T10:23:49;101601.47;;;21.31;47.05
79703;BME280;69172;52.352;5.006;2023-07-20T10:26:14;101602.44;;;21.35;46.65
79703;BME280;69172;52.352;5.006;2023-07-20T10:28:40;101598.00;;;21.68;46.39
79703;BME280;69172;52.352;5.006;2023-07-20T10:31:10;101594.88;;;21.84;45.48
79703;BME280;69172;52.352;5.006;2023-07-20T10:33:37;101600.84;;;21.79;45.22
79703;BME280;69172;52.352;5.006;2023-07-20T10:36:05;101602.53;;;21.77;45.77
79703;BME280;69172;52.352;5.006;2023-07-20T10:41:37;101597.94;;;21.65;44.46
79703;BME280;69172;52.352;5.006;2023-07-20T10:44:07;101606.28;;;21.49;44.55
79703;BME280;69172;52.352;5.006;2023-07-20T10:46:35;101595.56;;;21.39;44.38
79703;BME280;69172;52.352;5.006;2023-07-20T10:49:08;101593.97;;;21.45;45.58
79703;BME280;69172;52.352;5.006;2023-07-20T10:51:45;101592.56;;;21.59;45.57
79703;BME280;69172;52.352;5.006;2023-07-20T10:56:44;101591.81;;;21.66;45.07
79703;BME280;69172;52.352;5.006;2023-07-20T10:59:20;101596.19;;;21.66;45.20
79703;BME280;69172;52.352;5.006;2023-07-20T11:02:05;101598.19;;;21.39;46.42
79703;BME280;69172;52.352;5.006;2023-07-20T11:04:41;101594.63;;;21.36;47.17
79703;BME280;69172;52.352;5.006;2023-07-20T11:07:08;101596.16;;;21.28;47.28
79703;BME280;69172;52.352;5.006;2023-07-20T11:09:38;101588.97;;;21.20;46.54
79703;BME280;69172;52.352;5.006;2023-07-20T11:12:14;101592.53;;;21.22;46.68
79703;BME280;69172;52.352;5.006;2023-07-20T11:14:57;101589.88;;;21.20;47.15
79703;BME280;69172;52.352;5.006;2023-07-20T11:17:32;101586.00;;;21.41;46.35
79703;BME280;69172;52.352;5.006;2023-07-20T11:19:59;101576.34;;;21.77;45.68
79703;BME280;69172;52.352;5.006;2023-07-20T11:22:30;101576.25;;;22.11;44.97
79703;BME280;69172;52.352;5.006;2023-07-20T11:24:56;101579.84;;;22.16;45.25
79703;BME280;69172;52.352;5.006;2023-07-20T11:27:22;101574.91;;;22.31;45.56
79703;BME280;69172;52.352;5.006;2023-07-20T11:29:48;101580.41;;;22.43;45.87
79703;BME280;69172;52.352;5.006;2023-07-20T11:32:20;101576.25;;;22.54;45.10
79703;BME280;69172;52.352;5.006;2023-07-20T11:34:47;101575.41;;;22.56;44.86
79703;BME280;69172;52.352;5.006;2023-07-20T11:37:13;101572.81;;;22.12;45.36
79703;BME280;69172;52.352;5.006;2023-07-20T11:39:38;101572.81;;;21.75;46.55
79703;BME280;69172;52.352;5.006;2023-07-20T11:42:05;101576.75;;;21.56;46.44
79703;BME280;69172;52.352;5.006;2023-07-20T11:44:32;101567.75;;;21.44;46.64
79703;BME280;69172;52.352;5.006;2023-07-20T11:49:27;101561.06;;;21.56;45.55
79703;BME280;69172;52.352;5.006;2023-07-20T11:51:52;101563.13;;;21.33;46.24
79703;BME280;69172;52.352;5.006;2023-07-20T11:54:18;101564.78;;;21.28;48.51
79703;BME280;69172;52.352;5.006;2023-07-20T11:56:43;101559.91;;;21.44;48.55
79703;BME280;69172;52.352;5.006;2023-07-20T11:59:09;101557.06;;;21.34;47.07
79703;BME280;69172;52.352;5.006;2023-07-20T12:01:34;101558.97;;;21.42;47.64
79703;BME280;69172;52.352;5.006;2023-07-20T12:04:01;101560.81;;;21.44;47.21
79703;BME280;69172;52.352;5.006;2023-07-20T12:06:30;101554.78;;;21.48;46.60
79703;BME280;69172;52.352;5.006;2023-07-20T12:08:57;101559.56;;;21.67;46.58
79703;BME280;69172;52.352;5.006;2023-07-20T12:13:58;101555.00;;;21.59;46.22
79703;BME280;69172;52.352;5.006;2023-07-20T12:16:27;101549.13;;;21.69;45.95
79703;BME280;69172;52.352;5.006;2023-07-20T12:19:06;101556.59;;;21.89;46.71
79703;BME280;69172;52.352;5.006;2023-07-20T12:21:34;101547.88;;;21.90;46.52
79703;BME280;69172;52.352;5.006;2023-07-20T12:24:02;101548.88;;;21.97;46.18
79703;BME280;69172;52.352;5.006;2023-07-20T12:26:29;101545.09;;;22.25;46.37
79703;BME280;69172;52.352;5.006;2023-07-20T12:28:56;101547.03;;;22.81;45.22
79703;BME280;69172;52.352;5.006;2023-07-20T12:31:22;101550.44;;;22.76;45.07
79703;BME280;69172;52.352;5.006;2023-07-20T12:33:49;101547.16;;;22.89;44.41
79703;BME280;69172;52.352;5.006;2023-07-20T12:36:14;101548.44;;;22.63;44.37
79703;BME280;69172;52.352;5.006;2023-07-20T12:38:40;101548.81;;;22.36;44.44
79703;BME280;69172;52.352;5.006;2023-07-20T12:41:07;101538.00;;;22.19;44.30
79703;BME280;69172;52.352;5.006;2023-07-20T12:43:33;101541.78;;;21.91;45.05
79703;BME280;69172;52.352;5.006;2023-07-20T12:45:59;101539.31;;;21.99;45.07
79703;BME280;69172;52.352;5.006;2023-07-20T12:48:25;101541.16;;;22.03;46.44
79703;BME280;69172;52.352;5.006;2023-07-20T12:50:51;101538.78;;;22.15;44.91
79703;BME280;69172;52.352;5.006;2023-07-20T12:53:17;101538.97;;;22.69;44.13
79703;BME280;69172;52.352;5.006;2023-07-20T12:55:42;101535.75;;;22.85;43.58
79703;BME280;69172;52.352;5.006;2023-07-20T12:58:08;101531.84;;;23.15;43.07
79703;BME280;69172;52.352;5.006;2023-07-20T13:00:34;101533.16;;;23.41;42.77
79703;BME280;69172;52.352;5.006;2023-07-20T13:02:59;101532.72;;;23.74;41.55
79703;BME280;69172;52.352;5.006;2023-07-20T13:05:25;101527.19;;;23.54;41.05
79703;BME280;69172;52.352;5.006;2023-07-20T13:07:50;101525.38;;;23.48;41.70
79703;BME280;69172;52.352;5.006;2023-07-20T13:10:16;101532.75;;;23.17;41.89